sensor_id;sensor_type;location;lat;lon;timestamp;temperature;humidity
15156;DHT22;7678;50.058;8.306;2023-08-20T00:00:14;22.70;99.90
15156;DHT22;7678;50.058;8.306;2023-08-20T00:02:43;22.60;99.90
15156;DHT22;7678;50.058;8.306;2023-08-20T00:05:15;22.60;99.90
15156;DHT22;7678;50.058;8.306;2023-08-20T00:07:44;22.40;99.90
15156;DHT22;7678;50.058;8.306;2023-08-20T00:10:12;22.30;99.90
15156;DHT22;7678;50.058;8.306;2023-08-20T00:12:40;22.50;99.90
15156;DHT22;7678;50.058;8.306;2023-08-20T00:15:08;22.60;99.90
15156;DHT22;7678;50.058;8.306;2023-08-20T00:17:38;22.60;99.90
15156;DHT22;7678;50.058;8.306;2023-08-20T00:20:09;22.50;99.90
15156;DHT22;7678;50.058;8.306;2023-08-20T00:22:41;22.50;99.90
15156;DHT22;7678;50.058;8.306;2023-08-20T00:25:13;22.40;99.90
15156;DHT22;7678;50.058;8.306;2023-08-20T00:27:41;22.40;99.90
15156;DHT22;7678;50.058;8.306;2023-08-20T00:30:10;22.20;99.90
15156;DHT22;7678;50.058;8.306;2023-08-20T00:32:38;22.10;99.90
15156;DHT22;7678;50.058;8.306;2023-08-20T00:35:07;22.10;99.90
15156;DHT22;7678;50.058;8.306;2023-08-20T00:37:36;22.20;99.90
15156;DHT22;7678;50.058;8.306;2023-08-20T00:40:06;22.30;99.90
15156;DHT22;7678;50.058;8.306;2023-08-20T00:42:36;22.30;99.90
15156;DHT22;7678;50.058;8.306;2023-08-20T00:45:05;22.30;99.90
15156;DHT22;7678;50.058;8.306;2023-08-20T00:47:34;22.30;99.90
15156;DHT22;7678;50.058;8.306;2023-08-20T00:50:04;22.20;99.90
15156;DHT22;7678;50.058;8.306;2023-08-20T00:52:34;22.20;99.90
15156;DHT22;7678;50.058;8.306;2023-08-20T00:55:08;22.20;99.90
15156;DHT22;7678;50.058;8.306;2023-08-20T00:57:37;22.00;99.90
15156;DHT22;7678;50.058;8.306;2023-08-20T01:00:07;22.00;99.90
15156;DHT22;7678;50.058;8.306;2023-08-20T01:02:39;21.90;99.90
15156;DHT22;7678;50.058;8.306;2023-08-20T01:05:09;21.90;99.90
15156;DHT22;7678;50.058;8.306;2023-08-20T01:08:10;22.00;99.90
15156;DHT22;7678;50.058;8.306;2023-08-20T01:10:51;21.80;99.90
15156;DHT22;7678;50.058;8.306;2023-08-20T01:13:21;21.80;99.90
15156;DHT22;7678;50.058;8.306;2023-08-20T01:15:49;21.90;99.90
15156;DHT22;7678;50.058;8.306;2023-08-20T01:18:17;21.90;99.90
15156;DHT22;7678;50.058;8.306;2023-08-20T01:20:50;21.80;99.90
15156;DHT22;7678;50.058;8.306;2023-08-20T01:26:44;21.60;99.90
15156;DHT22;7678;50.058;8.306;2023-08-20T01:29:18;21.70;99.90
15156;DHT22;7678;50.058;8.306;2023-08-20T01:31:47;21.60;99.90
15156;DHT22;7678;50.058;8.306;2023-08-20T01:34:16;21.50;99.90
15156;DHT22;7678;50.058;8.306;2023-08-20T01:36:44;21.20;99.90
15156;DHT22;7678;50.058;8.306;2023-08-20T01:39:12;21.10;99.90
15156;DHT22;7678;50.058;8.306;2023-08-20T01:41:41;21.00;99.90
15156;DHT22;7678;50.058;8.306;2023-08-20T01:44:09;21.00;99.90
15156;DHT22;7678;50.058;8.306;2023-08-20T01:46:38;21.00;99.90
15156;DHT22;7678;50.058;8.306;2023-08-20T01:49:06;21.10;99.90
15156;DHT22;7678;50.058;8.306;2023-08-20T01:51:34;21.00;99.90
15156;DHT22;7678;50.058;8.306;2023-08-20T01:54:03;20.90;99.90
15156;DHT22;7678;50.058;8.306;2023-08-20T01:56:32;20.80;99.90
15156;DHT22;7678;50.058;8.306;2023-08-20T01:59:00;20.70;99.90
15156;DHT22;7678;50.058;8.306;2023-08-20T02:01:28;20.80;99.90
15156;DHT22;7678;50.058;8.306;2023-08-20T02:03:58;20.60;99.90
15156;DHT22;7678;50.058;8.306;2023-08-20T02:06:26;20.60;99.90
15156;DHT22;7678;50.058;8.306;2023-08-20T02:08:54;20.70;99.90
15156;DHT22;7678;50.058;8.306;2023-08-20T02:11:23;20.70;99.90
15156;DHT22;7678;50.058;8.306;2023-08-20T02:13:51;20.90;99.90
15156;DHT22;7678;50.058;8.306;2023-08-20T02:16:19;20.90;99.90
15156;DHT22;7678;50.058;8.306;2023-08-20T02:18:48;20.90;99.90
15156;DHT22;7678;50.058;8.306;2023-08-20T02:21:17;21.00;99.90
15156;DHT22;7678;50.058;8.306;2023-08-20T02:23:46;20.90;99.90
15156;DHT22;7678;50.058;8.306;2023-08-20T02:26:14;20.80;99.90
15156;DHT22;7678;50.058;8.306;2023-08-20T02:28:43;20.80;99.90
15156;DHT22;7678;50.058;8.306;2023-08-20T02:31:11;20.80;99.90
15156;DHT22;7678;50.058;8.306;2023-08-20T02:33:39;20.80;99.90
15156;DHT22;7678;50.058;8.306;2023-08-20T02:36:08;20.80;99.90
15156;DHT22;7678;50.058;8.306;2023-08-20T02:38:37;20.80;99.90
15156;DHT22;7678;50.058;8.306;2023-08-20T02:41:05;20.90;99.90
15156;DHT22;7678;50.058;8.306;2023-08-20T02:43:33;20.90;99.90
15156;DHT22;7678;50.058;8.306;2023-08-20T02:46:01;20.80;99.90
15156;DHT22;7678;50.058;8.306;2023-08-20T02:48:29;20.70;99.90
15156;DHT22;7678;50.058;8.306;2023-08-20T02:50:58;20.70;99.90
15156;DHT22;7678;50.058;8.306;2023-08-20T02:53:26;20.60;99.90
15156;DHT22;7678;50.058;8.306;2023-08-20T02:55:55;20.60;99.90
15156;DHT22;7678;50.058;8.306;2023-08-20T02:58:24;20.60;99.90
15156;DHT22;7678;50.058;8.306;2023-08-20T03:00:52;20.60;99.90
15156;DHT22;7678;50.058;8.306;2023-08-20T03:03:20;20.60;99.90
15156;DHT22;7678;50.058;8.306;2023-08-20T03:05:48;20.60;99.90
15156;DHT22;7678;50.058;8.306;2023-08-20T03:08:16;20.50;99.90
15156;DHT22;7678;50.058;8.306;2023-08-20T03:10:45;20.50;99.90
15156;DHT22;7678;50.058;8.306;2023-08-20T03:13:14;20.40;99.90
15156;DHT22;7678;50.058;8.306;2023-08-20T03:15:42;20.40;99.90
15156;DHT22;7678;50.058;8.306;2023-08-20T03:18:11;20.40;99.90
15156;DHT22;7678;50.058;8.306;2023-08-20T03:20:42;20.40;99.90
15156;DHT22;7678;50.058;8.306;2023-08-20T03:23:10;20.30;99.90
15156;DHT22;7678;50.058;8.306;2023-08-20T03:25:38;20.30;99.90
15156;DHT22;7678;50.058;8.306;2023-08-20T03:28:06;20.40;99.90
15156;DHT22;7678;50.058;8.306;2023-08-20T03:30:36;20.30;99.90
15156;DHT22;7678;50.058;8.306;2023-08-20T03:33:04;20.20;99.90
15156;DHT22;7678;50.058;8.306;2023-08-20T03:35:33;20.30;99.90
15156;DHT22;7678;50.058;8.306;2023-08-20T03:38:02;20.20;99.90
15156;DHT22;7678;50.058;8.306;2023-08-20T03:40:30;20.00;99.90
15156;DHT22;7678;50.058;8.306;2023-08-20T03:42:58;19.90;99.90
15156;DHT22;7678;50.058;8.306;2023-08-20T03:45:27;20.00;99.90
15156;DHT22;7678;50.058;8.306;2023-08-20T03:48:00;20.00;99.90
15156;DHT22;7678;50.058;8.306;2023-08-20T03:50:38;20.20;99.90
15156;DHT22;7678;50.058;8.306;2023-08-20T03:53:07;20.10;99.90
15156;DHT22;7678;50.058;8.306;2023-08-20T03:55:35;19.90;99.90
15156;DHT22;7678;50.058;8.306;2023-08-20T03:58:04;20.00;99.90
15156;DHT22;7678;50.058;8.306;2023-08-20T04:00:34;20.00;99.90
15156;DHT22;7678;50.058;8.306;2023-08-20T04:03:04;20.10;99.90
15156;DHT22;7678;50.058;8.306;2023-08-20T04:05:36;20.10;99.90
15156;DHT22;7678;50.058;8.306;2023-08-20T04:08:05;20.00;99.90
15156;DHT22;7678;50.058;8.306;2023-08-20T04:10:35;19.90;99.90
15156;DHT22;7678;50.058;8.306;2023-08-20T04:13:10;19.70;99.90
15156;DHT22;7678;50.058;8.306;2023-08-20T04:15:41;19.70;99.90
15156;DHT22;7678;50.058;8.306;2023-08-20T04:18:11;19.80;99.90
15156;DHT22;7678;50.058;8.306;2023-08-20T04:20:42;19.70;99.90
15156;DHT22;7678;50.058;8.306;2023-08-20T04:23:11;19.80;99.90
15156;DHT22;7678;50.058;8.306;2023-08-20T04:25:40;19.90;99.90
15156;DHT22;7678;50.058;8.306;2023-08-20T04:28:09;20.00;99.90
15156;DHT22;7678;50.058;8.306;2023-08-20T04:30:39;20.00;99.90
15156;DHT22;7678;50.058;8.306;2023-08-20T04:33:08;20.10;99.90
15156;DHT22;7678;50.058;8.306;2023-08-20T04:35:38;20.10;99.90
15156;DHT22;7678;50.058;8.306;2023-08-20T04:38:06;20.20;99.90
15156;DHT22;7678;50.058;8.306;2023-08-20T04:40:37;20.30;99.90
15156;DHT22;7678;50.058;8.306;2023-08-20T04:43:05;20.30;99.90
15156;DHT22;7678;50.058;8.306;2023-08-20T04:45:33;20.20;99.90
15156;DHT22;7678;50.058;8.306;2023-08-20T04:48:02;20.20;99.90
15156;DHT22;7678;50.058;8.306;2023-08-20T04:50:32;19.90;99.90
15156;DHT22;7678;50.058;8.306;2023-08-20T04:53:03;19.90;99.90
15156;DHT22;7678;50.058;8.306;2023-08-20T04:55:33;20.10;99.90
15156;DHT22;7678;50.058;8.306;2023-08-20T04:58:03;20.10;99.90
15156;DHT22;7678;50.058;8.306;2023-08-20T05:00:33;20.10;99.90
15156;DHT22;7678;50.058;8.306;2023-08-20T05:03:02;20.10;99.90
15156;DHT22;7678;50.058;8.306;2023-08-20T05:05:31;20.20;99.90
15156;DHT22;7678;50.058;8.306;2023-08-20T05:07:59;20.20;99.90
15156;DHT22;7678;50.058;8.306;2023-08-20T05:10:28;20.30;99.90
15156;DHT22;7678;50.058;8.306;2023-08-20T05:12:56;20.40;99.90
15156;DHT22;7678;50.058;8.306;2023-08-20T05:15:24;20.50;99.90
15156;DHT22;7678;50.058;8.306;2023-08-20T05:17:55;20.70;99.90
15156;DHT22;7678;50.058;8.306;2023-08-20T05:20:23;20.90;99.90
15156;DHT22;7678;50.058;8.306;2023-08-20T05:22:54;21.00;99.90
15156;DHT22;7678;50.058;8.306;2023-08-20T05:25:22;21.10;99.90
15156;DHT22;7678;50.058;8.306;2023-08-20T05:27:52;21.10;99.90
15156;DHT22;7678;50.058;8.306;2023-08-20T05:30:20;21.10;99.90
15156;DHT22;7678;50.058;8.306;2023-08-20T05:32:48;21.40;99.90
15156;DHT22;7678;50.058;8.306;2023-08-20T05:35:16;21.40;99.90
15156;DHT22;7678;50.058;8.306;2023-08-20T05:37:44;21.50;99.90
15156;DHT22;7678;50.058;8.306;2023-08-20T05:40:13;21.40;99.90
15156;DHT22;7678;50.058;8.306;2023-08-20T05:42:41;21.50;99.90
15156;DHT22;7678;50.058;8.306;2023-08-20T05:45:11;21.50;99.90
15156;DHT22;7678;50.058;8.306;2023-08-20T05:47:41;21.60;99.90
15156;DHT22;7678;50.058;8.306;2023-08-20T05:50:10;21.70;99.90
15156;DHT22;7678;50.058;8.306;2023-08-20T05:52:38;21.70;99.90
15156;DHT22;7678;50.058;8.306;2023-08-20T05:55:06;21.80;99.90
15156;DHT22;7678;50.058;8.306;2023-08-20T05:57:35;22.00;99.90
15156;DHT22;7678;50.058;8.306;2023-08-20T06:00:05;22.10;99.90
15156;DHT22;7678;50.058;8.306;2023-08-20T06:02:37;22.10;99.90
15156;DHT22;7678;50.058;8.306;2023-08-20T06:05:06;22.20;99.90
15156;DHT22;7678;50.058;8.306;2023-08-20T06:07:34;22.20;99.90
15156;DHT22;7678;50.058;8.306;2023-08-20T06:10:06;22.20;99.90
15156;DHT22;7678;50.058;8.306;2023-08-20T06:12:35;22.20;99.90
15156;DHT22;7678;50.058;8.306;2023-08-20T06:15:04;22.20;99.90
15156;DHT22;7678;50.058;8.306;2023-08-20T06:17:34;22.20;99.90
15156;DHT22;7678;50.058;8.306;2023-08-20T06:20:04;22.30;99.90
15156;DHT22;7678;50.058;8.306;2023-08-20T06:22:35;22.50;99.90
15156;DHT22;7678;50.058;8.306;2023-08-20T06:25:04;22.60;99.90
15156;DHT22;7678;50.058;8.306;2023-08-20T06:27:32;22.60;99.90
15156;DHT22;7678;50.058;8.306;2023-08-20T06:30:02;22.80;99.90
15156;DHT22;7678;50.058;8.306;2023-08-20T06:32:30;22.90;99.90
15156;DHT22;7678;50.058;8.306;2023-08-20T06:35:00;23.00;99.90
15156;DHT22;7678;50.058;8.306;2023-08-20T06:37:29;23.10;99.90
15156;DHT22;7678;50.058;8.306;2023-08-20T06:39:57;23.20;99.90
15156;DHT22;7678;50.058;8.306;2023-08-20T06:42:25;23.20;99.90
15156;DHT22;7678;50.058;8.306;2023-08-20T06:44:53;23.20;99.90
15156;DHT22;7678;50.058;8.306;2023-08-20T06:47:21;23.20;99.90
15156;DHT22;7678;50.058;8.306;2023-08-20T06:49:50;23.10;99.90
15156;DHT22;7678;50.058;8.306;2023-08-20T06:52:19;23.20;99.90
15156;DHT22;7678;50.058;8.306;2023-08-20T06:54:48;23.20;99.90
15156;DHT22;7678;50.058;8.306;2023-08-20T06:57:17;23.30;99.90
15156;DHT22;7678;50.058;8.306;2023-08-20T06:59:45;23.20;99.90
15156;DHT22;7678;50.058;8.306;2023-08-20T07:02:14;23.30;99.90
15156;DHT22;7678;50.058;8.306;2023-08-20T07:04:42;23.40;99.90
15156;DHT22;7678;50.058;8.306;2023-08-20T07:07:11;23.50;99.90
15156;DHT22;7678;50.058;8.306;2023-08-20T07:09:41;23.60;99.90
15156;DHT22;7678;50.058;8.306;2023-08-20T07:12:09;23.70;99.90
15156;DHT22;7678;50.058;8.306;2023-08-20T07:14:37;23.80;99.90
15156;DHT22;7678;50.058;8.306;2023-08-20T07:17:08;23.80;99.90
15156;DHT22;7678;50.058;8.306;2023-08-20T07:19:37;23.80;99.90
15156;DHT22;7678;50.058;8.306;2023-08-20T07:22:05;23.90;99.90
15156;DHT22;7678;50.058;8.306;2023-08-20T07:24:33;23.90;99.90
15156;DHT22;7678;50.058;8.306;2023-08-20T07:27:03;24.00;99.90
15156;DHT22;7678;50.058;8.306;2023-08-20T07:29:37;24.10;99.90
15156;DHT22;7678;50.058;8.306;2023-08-20T07:32:06;24.20;99.90
15156;DHT22;7678;50.058;8.306;2023-08-20T07:34:34;24.10;99.90
15156;DHT22;7678;50.058;8.306;2023-08-20T07:37:03;24.10;99.90
15156;DHT22;7678;50.058;8.306;2023-08-20T07:39:31;24.20;99.90
15156;DHT22;7678;50.058;8.306;2023-08-20T07:41:59;24.20;99.90
15156;DHT22;7678;50.058;8.306;2023-08-20T07:44:29;24.10;99.90
15156;DHT22;7678;50.058;8.306;2023-08-20T07:46:58;24.30;99.90
15156;DHT22;7678;50.058;8.306;2023-08-20T07:49:27;24.30;99.90
15156;DHT22;7678;50.058;8.306;2023-08-20T07:51:58;24.30;99.90
15156;DHT22;7678;50.058;8.306;2023-08-20T07:54:27;24.40;99.90
15156;DHT22;7678;50.058;8.306;2023-08-20T07:56:56;24.50;99.90
15156;DHT22;7678;50.058;8.306;2023-08-20T07:59:25;24.60;99.90
15156;DHT22;7678;50.058;8.306;2023-08-20T08:01:54;24.60;99.90
15156;DHT22;7678;50.058;8.306;2023-08-20T08:04:23;24.70;99.90
15156;DHT22;7678;50.058;8.306;2023-08-20T08:06:51;24.60;99.90
15156;DHT22;7678;50.058;8.306;2023-08-20T08:09:26;24.60;99.90
15156;DHT22;7678;50.058;8.306;2023-08-20T08:11:55;24.80;99.90
15156;DHT22;7678;50.058;8.306;2023-08-20T08:14:27;24.90;99.90
15156;DHT22;7678;50.058;8.306;2023-08-20T08:16:59;25.00;99.90
15156;DHT22;7678;50.058;8.306;2023-08-20T08:19:28;25.00;99.90
15156;DHT22;7678;50.058;8.306;2023-08-20T08:21:56;25.00;99.90
15156;DHT22;7678;50.058;8.306;2023-08-20T08:24:25;25.00;99.90
15156;DHT22;7678;50.058;8.306;2023-08-20T08:26:53;25.10;99.90
15156;DHT22;7678;50.058;8.306;2023-08-20T08:29:21;25.10;99.90
15156;DHT22;7678;50.058;8.306;2023-08-20T08:31:50;25.20;99.90
15156;DHT22;7678;50.058;8.306;2023-08-20T08:34:19;25.30;99.90
15156;DHT22;7678;50.058;8.306;2023-08-20T08:36:48;25.30;99.90
15156;DHT22;7678;50.058;8.306;2023-08-20T08:39:16;25.30;99.90
15156;DHT22;7678;50.058;8.306;2023-08-20T08:41:50;25.30;99.90
15156;DHT22;7678;50.058;8.306;2023-08-20T08:44:20;25.40;99.90
15156;DHT22;7678;50.058;8.306;2023-08-20T08:46:49;25.50;99.90
15156;DHT22;7678;50.058;8.306;2023-08-20T08:49:20;25.50;99.90
15156;DHT22;7678;50.058;8.306;2023-08-20T08:51:49;25.40;99.90
15156;DHT22;7678;50.058;8.306;2023-08-20T08:54:20;25.60;99.90
15156;DHT22;7678;50.058;8.306;2023-08-20T08:56:49;25.60;99.90
15156;DHT22;7678;50.058;8.306;2023-08-20T08:59:18;25.60;99.90
15156;DHT22;7678;50.058;8.306;2023-08-20T09:01:48;25.40;99.90
15156;DHT22;7678;50.058;8.306;2023-08-20T09:04:16;25.60;99.90
15156;DHT22;7678;50.058;8.306;2023-08-20T09:06:48;25.60;99.90
15156;DHT22;7678;50.058;8.306;2023-08-20T09:09:29;25.70;99.90
15156;DHT22;7678;50.058;8.306;2023-08-20T09:12:13;25.80;99.90
15156;DHT22;7678;50.058;8.306;2023-08-20T09:14:50;25.90;99.90
15156;DHT22;7678;50.058;8.306;2023-08-20T09:17:18;26.10;99.90
15156;DHT22;7678;50.058;8.306;2023-08-20T09:19:49;26.10;99.90
15156;DHT22;7678;50.058;8.306;2023-08-20T09:22:19;26.10;99.90
15156;DHT22;7678;50.058;8.306;2023-08-20T09:24:51;26.10;99.90
15156;DHT22;7678;50.058;8.306;2023-08-20T09:27:20;26.20;99.90
15156;DHT22;7678;50.058;8.306;2023-08-20T09:29:50;26.30;99.90
15156;DHT22;7678;50.058;8.306;2023-08-20T09:32:20;26.20;99.90
15156;DHT22;7678;50.058;8.306;2023-08-20T09:34:49;26.20;99.90
15156;DHT22;7678;50.058;8.306;2023-08-20T09:37:21;26.40;99.90
15156;DHT22;7678;50.058;8.306;2023-08-20T09:39:50;26.60;99.90
15156;DHT22;7678;50.058;8.306;2023-08-20T09:42:19;26.50;99.90
15156;DHT22;7678;50.058;8.306;2023-08-20T09:44:47;26.50;99.90
15156;DHT22;7678;50.058;8.306;2023-08-20T09:47:18;26.60;99.90
15156;DHT22;7678;50.058;8.306;2023-08-20T09:49:49;26.50;99.90
15156;DHT22;7678;50.058;8.306;2023-08-20T09:52:26;26.40;99.90
15156;DHT22;7678;50.058;8.306;2023-08-20T09:55:00;26.50;99.90
15156;DHT22;7678;50.058;8.306;2023-08-20T09:57:34;26.50;99.90
15156;DHT22;7678;50.058;8.306;2023-08-20T10:00:05;26.60;99.90
15156;DHT22;7678;50.058;8.306;2023-08-20T10:02:37;26.60;99.90
15156;DHT22;7678;50.058;8.306;2023-08-20T10:05:06;26.80;99.90
15156;DHT22;7678;50.058;8.306;2023-08-20T10:07:36;26.90;99.90
15156;DHT22;7678;50.058;8.306;2023-08-20T10:10:07;27.30;99.90
15156;DHT22;7678;50.058;8.306;2023-08-20T10:12:36;27.30;99.90
15156;DHT22;7678;50.058;8.306;2023-08-20T10:15:08;27.30;99.90
15156;DHT22;7678;50.058;8.306;2023-08-20T10:17:40;27.40;99.90
15156;DHT22;7678;50.058;8.306;2023-08-20T10:20:09;27.50;99.90
15156;DHT22;7678;50.058;8.306;2023-08-20T10:22:41;27.30;99.90
15156;DHT22;7678;50.058;8.306;2023-08-20T10:25:10;27.50;99.90
15156;DHT22;7678;50.058;8.306;2023-08-20T10:27:39;27.40;99.90
15156;DHT22;7678;50.058;8.306;2023-08-20T10:30:10;27.30;99.90
15156;DHT22;7678;50.058;8.306;2023-08-20T10:32:49;27.40;99.90
15156;DHT22;7678;50.058;8.306;2023-08-20T10:35:19;27.50;99.90
15156;DHT22;7678;50.058;8.306;2023-08-20T10:38:07;27.70;99.90
15156;DHT22;7678;50.058;8.306;2023-08-20T10:40:53;27.70;99.90
15156;DHT22;7678;50.058;8.306;2023-08-20T10:43:32;27.80;99.90
15156;DHT22;7678;50.058;8.306;2023-08-20T10:46:10;27.90;99.90
15156;DHT22;7678;50.058;8.306;2023-08-20T10:48:41;27.80;99.90
15156;DHT22;7678;50.058;8.306;2023-08-20T10:51:10;27.70;99.90
15156;DHT22;7678;50.058;8.306;2023-08-20T10:53:42;27.90;99.90
15156;DHT22;7678;50.058;8.306;2023-08-20T10:56:12;28.20;99.90
15156;DHT22;7678;50.058;8.306;2023-08-20T10:58:45;28.40;99.90
15156;DHT22;7678;50.058;8.306;2023-08-20T11:01:15;28.50;99.90
15156;DHT22;7678;50.058;8.306;2023-08-20T11:03:45;28.50;99.40
15156;DHT22;7678;50.058;8.306;2023-08-20T11:06:13;28.60;99.90
15156;DHT22;7678;50.058;8.306;2023-08-20T11:08:43;28.90;99.90
15156;DHT22;7678;50.058;8.306;2023-08-20T11:11:12;29.10;99.90
15156;DHT22;7678;50.058;8.306;2023-08-20T11:13:40;29.20;99.90
15156;DHT22;7678;50.058;8.306;2023-08-20T11:16:09;29.30;99.10
15156;DHT22;7678;50.058;8.306;2023-08-20T11:18:37;29.40;97.70
15156;DHT22;7678;50.058;8.306;2023-08-20T11:21:05;29.40;95.90
15156;DHT22;7678;50.058;8.306;2023-08-20T11:23:35;29.40;96.50
15156;DHT22;7678;50.058;8.306;2023-08-20T11:26:07;29.10;96.20
15156;DHT22;7678;50.058;8.306;2023-08-20T11:28:35;28.90;96.10
15156;DHT22;7678;50.058;8.306;2023-08-20T11:31:03;29.10;94.50
15156;DHT22;7678;50.058;8.306;2023-08-20T11:33:32;28.90;93.80
15156;DHT22;7678;50.058;8.306;2023-08-20T11:36:01;29.20;93.20
15156;DHT22;7678;50.058;8.306;2023-08-20T11:38:31;29.50;94.20
15156;DHT22;7678;50.058;8.306;2023-08-20T11:40:59;29.50;95.00
15156;DHT22;7678;50.058;8.306;2023-08-20T11:43:29;29.30;93.50
15156;DHT22;7678;50.058;8.306;2023-08-20T11:45:59;29.90;93.80
15156;DHT22;7678;50.058;8.306;2023-08-20T11:48:27;29.50;93.90
15156;DHT22;7678;50.058;8.306;2023-08-20T11:50:57;29.50;94.10
15156;DHT22;7678;50.058;8.306;2023-08-20T11:53:28;29.70;94.20
15156;DHT22;7678;50.058;8.306;2023-08-20T11:55:56;30.00;93.40
15156;DHT22;7678;50.058;8.306;2023-08-20T11:58:24;30.50;92.00
15156;DHT22;7678;50.058;8.306;2023-08-20T12:00:54;30.80;92.10
15156;DHT22;7678;50.058;8.306;2023-08-20T12:03:29;30.40;92.00
15156;DHT22;7678;50.058;8.306;2023-08-20T12:05:57;30.60;91.40
15156;DHT22;7678;50.058;8.306;2023-08-20T12:08:25;30.80;91.20
15156;DHT22;7678;50.058;8.306;2023-08-20T12:10:57;31.00;91.60
15156;DHT22;7678;50.058;8.306;2023-08-20T12:13:26;31.00;90.50
15156;DHT22;7678;50.058;8.306;2023-08-20T12:15:58;31.10;89.30
15156;DHT22;7678;50.058;8.306;2023-08-20T12:18:26;31.30;89.70
15156;DHT22;7678;50.058;8.306;2023-08-20T12:20:54;31.30;88.60
15156;DHT22;7678;50.058;8.306;2023-08-20T12:23:22;31.50;89.70
15156;DHT22;7678;50.058;8.306;2023-08-20T12:25:51;31.20;88.20
15156;DHT22;7678;50.058;8.306;2023-08-20T12:28:19;31.10;88.50
15156;DHT22;7678;50.058;8.306;2023-08-20T12:30:50;31.00;86.70
15156;DHT22;7678;50.058;8.306;2023-08-20T12:33:22;31.30;88.10
15156;DHT22;7678;50.058;8.306;2023-08-20T12:35:53;31.50;83.40
15156;DHT22;7678;50.058;8.306;2023-08-20T12:38:21;31.50;85.30
15156;DHT22;7678;50.058;8.306;2023-08-20T12:40:49;31.70;84.80
15156;DHT22;7678;50.058;8.306;2023-08-20T12:43:20;31.60;83.90
15156;DHT22;7678;50.058;8.306;2023-08-20T12:45:48;31.60;85.00
15156;DHT22;7678;50.058;8.306;2023-08-20T12:48:20;31.70;85.80
15156;DHT22;7678;50.058;8.306;2023-08-20T12:50:48;31.60;83.00
15156;DHT22;7678;50.058;8.306;2023-08-20T12:53:16;31.70;82.50
15156;DHT22;7678;50.058;8.306;2023-08-20T12:55:44;32.10;80.30
15156;DHT22;7678;50.058;8.306;2023-08-20T12:58:12;32.10;75.50
15156;DHT22;7678;50.058;8.306;2023-08-20T13:00:40;32.20;77.50
15156;DHT22;7678;50.058;8.306;2023-08-20T13:03:09;32.30;74.50
15156;DHT22;7678;50.058;8.306;2023-08-20T13:05:39;32.20;75.80
15156;DHT22;7678;50.058;8.306;2023-08-20T13:08:09;32.30;76.00
15156;DHT22;7678;50.058;8.306;2023-08-20T13:10:40;32.30;75.20
15156;DHT22;7678;50.058;8.306;2023-08-20T13:13:10;32.30;78.30
15156;DHT22;7678;50.058;8.306;2023-08-20T13:15:39;32.50;72.60
15156;DHT22;7678;50.058;8.306;2023-08-20T13:18:11;32.60;70.40
15156;DHT22;7678;50.058;8.306;2023-08-20T13:20:42;32.50;68.40
15156;DHT22;7678;50.058;8.306;2023-08-20T13:23:10;32.10;71.90
15156;DHT22;7678;50.058;8.306;2023-08-20T13:25:39;32.30;69.40
15156;DHT22;7678;50.058;8.306;2023-08-20T13:28:09;32.00;70.60
15156;DHT22;7678;50.058;8.306;2023-08-20T13:30:37;32.40;68.80
15156;DHT22;7678;50.058;8.306;2023-08-20T13:33:06;32.30;66.90
15156;DHT22;7678;50.058;8.306;2023-08-20T13:35:34;32.60;72.00
15156;DHT22;7678;50.058;8.306;2023-08-20T13:38:04;32.60;69.50
15156;DHT22;7678;50.058;8.306;2023-08-20T13:40:35;32.60;68.10
15156;DHT22;7678;50.058;8.306;2023-08-20T13:43:05;32.50;71.10
15156;DHT22;7678;50.058;8.306;2023-08-20T13:45:33;32.30;69.20
15156;DHT22;7678;50.058;8.306;2023-08-20T13:48:01;32.20;68.50
15156;DHT22;7678;50.058;8.306;2023-08-20T13:50:30;32.30;69.40
15156;DHT22;7678;50.058;8.306;2023-08-20T13:52:58;32.10;70.60
15156;DHT22;7678;50.058;8.306;2023-08-20T13:55:29;32.50;67.00
15156;DHT22;7678;50.058;8.306;2023-08-20T13:58:03;32.60;67.50
15156;DHT22;7678;50.058;8.306;2023-08-20T14:00:33;32.50;66.50
15156;DHT22;7678;50.058;8.306;2023-08-20T14:03:01;33.10;68.30
15156;DHT22;7678;50.058;8.306;2023-08-20T14:05:32;32.90;66.40
15156;DHT22;7678;50.058;8.306;2023-08-20T14:08:00;32.80;66.40
15156;DHT22;7678;50.058;8.306;2023-08-20T14:10:34;33.00;66.30
15156;DHT22;7678;50.058;8.306;2023-08-20T14:13:02;33.20;64.80
15156;DHT22;7678;50.058;8.306;2023-08-20T14:15:30;32.90;65.10
15156;DHT22;7678;50.058;8.306;2023-08-20T14:18:00;32.80;68.20
15156;DHT22;7678;50.058;8.306;2023-08-20T14:20:29;32.10;66.70
15156;DHT22;7678;50.058;8.306;2023-08-20T14:22:59;32.40;67.50
15156;DHT22;7678;50.058;8.306;2023-08-20T14:25:32;32.60;69.70
15156;DHT22;7678;50.058;8.306;2023-08-20T14:28:18;32.90;65.60
15156;DHT22;7678;50.058;8.306;2023-08-20T14:30:46;33.20;66.40
15156;DHT22;7678;50.058;8.306;2023-08-20T14:33:16;33.30;65.70
15156;DHT22;7678;50.058;8.306;2023-08-20T14:35:46;33.20;65.40
15156;DHT22;7678;50.058;8.306;2023-08-20T14:38:16;33.00;64.90
15156;DHT22;7678;50.058;8.306;2023-08-20T14:40:45;33.00;68.20
15156;DHT22;7678;50.058;8.306;2023-08-20T14:43:13;32.70;64.60
15156;DHT22;7678;50.058;8.306;2023-08-20T14:45:45;32.20;71.60
15156;DHT22;7678;50.058;8.306;2023-08-20T14:48:13;31.60;72.50
15156;DHT22;7678;50.058;8.306;2023-08-20T14:50:41;31.20;73.40
15156;DHT22;7678;50.058;8.306;2023-08-20T14:53:12;30.90;75.20
15156;DHT22;7678;50.058;8.306;2023-08-20T14:55:40;30.50;77.60
15156;DHT22;7678;50.058;8.306;2023-08-20T14:58:08;30.70;77.80
15156;DHT22;7678;50.058;8.306;2023-08-20T15:00:38;30.50;77.40
15156;DHT22;7678;50.058;8.306;2023-08-20T15:03:07;30.80;76.00
15156;DHT22;7678;50.058;8.306;2023-08-20T15:05:38;30.70;74.00
15156;DHT22;7678;50.058;8.306;2023-08-20T15:08:09;30.50;73.20
15156;DHT22;7678;50.058;8.306;2023-08-20T15:10:42;30.50;74.00
15156;DHT22;7678;50.058;8.306;2023-08-20T15:13:10;30.80;75.30
15156;DHT22;7678;50.058;8.306;2023-08-20T15:15:40;31.20;73.30
15156;DHT22;7678;50.058;8.306;2023-08-20T15:18:10;31.50;72.50
15156;DHT22;7678;50.058;8.306;2023-08-20T15:20:38;31.50;70.50
15156;DHT22;7678;50.058;8.306;2023-08-20T15:23:06;31.60;70.70
15156;DHT22;7678;50.058;8.306;2023-08-20T15:25:34;31.40;71.60
15156;DHT22;7678;50.058;8.306;2023-08-20T15:28:05;31.30;71.60
15156;DHT22;7678;50.058;8.306;2023-08-20T15:30:33;31.00;72.40
15156;DHT22;7678;50.058;8.306;2023-08-20T15:33:02;30.90;76.00
15156;DHT22;7678;50.058;8.306;2023-08-20T15:35:34;30.50;75.40
15156;DHT22;7678;50.058;8.306;2023-08-20T15:38:02;30.50;75.20
15156;DHT22;7678;50.058;8.306;2023-08-20T15:40:31;30.40;76.80
15156;DHT22;7678;50.058;8.306;2023-08-20T15:42:59;30.60;77.20
15156;DHT22;7678;50.058;8.306;2023-08-20T15:45:27;30.60;75.00
15156;DHT22;7678;50.058;8.306;2023-08-20T15:47:55;30.70;74.20
15156;DHT22;7678;50.058;8.306;2023-08-20T15:50:36;30.80;75.60
15156;DHT22;7678;50.058;8.306;2023-08-20T15:53:04;30.80;74.10
15156;DHT22;7678;50.058;8.306;2023-08-20T15:55:33;31.20;72.30
15156;DHT22;7678;50.058;8.306;2023-08-20T15:58:02;31.30;71.10
15156;DHT22;7678;50.058;8.306;2023-08-20T16:00:31;31.30;71.10
15156;DHT22;7678;50.058;8.306;2023-08-20T16:03:02;31.20;74.30